Time;durP1;ratioP1;P1;durP2;ratioP2;P2;SDS_P1;SDS_P2;PMS_P1;PMS_P2;Temp;Humidity;BMP_temperature;BMP_pressure;BME280_temperature;BME280_humidity;BME280_pressure;Samples;Min_cycle;Max_cycle;Signal;HPM_P1;HPM_P2
2022/01/11 00:01:27;;;;;;;;;;;;;;;0.23;88.79;102409.78;5056707;27;19919;-67
2022/01/11 00:03:53;;;;;;;;;;;;;;;0.23;88.33;102401.97;5040994;27;20012;-70
2022/01/11 00:06:40;;;;;;;;;;;;;;;0.20;88.32;102408.97;5035606;27;19907;-67
2022/01/11 00:09:19;;;;;;;;;;;;;;;0.11;88.52;102405.69;5034970;27;19903;-69
2022/01/11 00:11:45;;;;;;;;;;;;;;;0.14;88.31;102409.94;5022487;27;19907;-67
2022/01/11 00:14:10;;;;;;;;;;;;;;;0.05;88.37;102410.13;5035825;27;19979;-67
2022/01/11 00:16:35;;;;;;;;;;;;;;;0.08;88.25;102404.84;5037254;27;20028;-70
2022/01/11 00:19:05;;;;;;;;;;;;;;;0.08;88.49;102410.06;5053110;27;19960;-67
2022/01/11 00:21:30;;;;;;;;;;;;;;;0.25;87.81;102399.34;5054625;27;19945;-68
2022/01/11 00:26:40;;;;;;;;;;;;;;;0.06;88.18;102410.09;5055485;27;19913;-68
2022/01/11 00:29:05;;;;;;;;;;;;;;;-0.03;88.52;102405.03;5040417;27;21183;-67
2022/01/11 00:31:30;;;;;;;;;;;;;;;0.05;88.87;102405.75;5053600;27;19955;-67
2022/01/11 00:33:55;;;;;;;;;;;;;;;0.03;88.50;102414.47;5066512;27;20043;-67
2022/01/11 00:36:21;;;;;;;;;;;;;;;-0.05;88.43;102417.22;5066388;27;19984;-70
2022/01/11 00:38:46;;;;;;;;;;;;;;;-0.20;88.66;102416.63;5042645;27;20329;-68
2022/01/11 00:41:11;;;;;;;;;;;;;;;-0.13;88.98;102419.09;5053840;27;19934;-67
2022/01/11 00:43:37;;;;;;;;;;;;;;;-0.17;89.04;102426.09;5040871;27;19903;-67
2022/01/11 00:46:02;;;;;;;;;;;;;;;-0.15;88.99;102413.09;5057648;27;19931;-68
2022/01/11 00:48:28;;;;;;;;;;;;;;;-0.21;89.07;102414.06;5037019;27;19899;-69
2022/01/11 00:50:53;;;;;;;;;;;;;;;-0.14;88.60;102414.78;5020097;27;20247;-68
2022/01/11 00:53:19;;;;;;;;;;;;;;;-0.19;88.86;102418.31;5037783;27;20063;-68
2022/01/11 00:55:45;;;;;;;;;;;;;;;-0.11;89.31;102425.13;5015969;28;20831;-68
2022/01/11 00:58:10;;;;;;;;;;;;;;;-0.18;89.28;102419.19;5042240;27;19914;-68
2022/01/11 01:00:36;;;;;;;;;;;;;;;-0.20;89.78;102420.94;5056887;27;20341;-68
2022/01/11 01:03:01;;;;;;;;;;;;;;;-0.09;89.63;102425.97;5073140;27;19907;-67
2022/01/11 01:05:26;;;;;;;;;;;;;;;-0.03;89.65;102424.13;5059963;27;20406;-68
2022/01/11 01:07:52;;;;;;;;;;;;;;;-0.06;89.50;102426.75;5037548;27;20115;-68
2022/01/11 01:12:45;;;;;;;;;;;;;;;-0.05;89.60;102431.09;5040668;27;20387;-68
2022/01/11 01:15:10;;;;;;;;;;;;;;;-0.06;89.42;102426.75;5037724;27;20211;-68
2022/01/11 01:17:35;;;;;;;;;;;;;;;0.02;89.47;102423.19;5061378;27;20103;-68
2022/01/11 01:20:00;;;;;;;;;;;;;;;0.03;89.23;102432.69;5020788;27;20253;-67
2022/01/11 01:22:26;;;;;;;;;;;;;;;-0.05;88.49;102435.44;5058883;27;19922;-68
2022/01/11 01:24:51;;;;;;;;;;;;;;;-0.13;88.81;102429.50;5061276;27;20039;-67
2022/01/11 01:27:16;;;;;;;;;;;;;;;-0.19;88.94;102430.47;5059355;27;20142;-68
2022/01/11 01:29:41;;;;;;;;;;;;;;;-0.12;89.31;102429.50;5041928;27;20066;-66
2022/01/11 01:32:07;;;;;;;;;;;;;;;-0.10;88.96;102451.16;5021420;27;19907;-70
2022/01/11 01:34:32;;;;;;;;;;;;;;;-0.20;88.75;102452.16;5040229;27;19944;-67
2022/01/11 01:36:58;;;;;;;;;;;;;;;-0.14;89.15;102444.28;5055643;27;19915;-67
2022/01/11 01:39:25;;;;;;;;;;;;;;;-0.10;88.96;102448.56;5041361;27;20002;-67
2022/01/11 01:41:50;;;;;;;;;;;;;;;-0.09;88.55;102455.44;5019213;27;19915;-66
2022/01/11 01:44:15;;;;;;;;;;;;;;;-0.15;88.82;102449.50;5038735;27;19965;-70
2022/01/11 01:46:40;;;;;;;;;;;;;;;-0.20;88.87;102452.16;5039358;27;20341;-69
2022/01/11 01:49:07;;;;;;;;;;;;;;;-0.20;88.95;102449.56;5056076;27;19914;-69
2022/01/11 01:51:32;;;;;;;;;;;;;;;-0.29;88.96;102450.56;5059549;27;20262;-67
2022/01/11 01:53:57;;;;;;;;;;;;;;;-0.18;89.12;102455.63;5032842;27;20406;-67
2022/01/11 01:56:22;;;;;;;;;;;;;;;-0.23;89.20;102463.47;5039870;27;19922;-69
2022/01/11 01:58:48;;;;;;;;;;;;;;;-0.32;89.49;102462.75;5019291;27;20027;-69
2022/01/11 02:01:14;;;;;;;;;;;;;;;-0.29;89.28;102458.38;5039120;27;20039;-69
2022/01/11 02:03:40;;;;;;;;;;;;;;;-0.20;89.25;102465.19;5039699;27;20722;-68
2022/01/11 02:06:06;;;;;;;;;;;;;;;-0.22;89.08;102464.34;5036960;27;20021;-70
2022/01/11 02:08:31;;;;;;;;;;;;;;;-0.30;89.33;102466.22;5023736;27;20716;-70
2022/01/11 02:10:56;;;;;;;;;;;;;;;-0.24;88.71;102468.72;5033087;27;19912;-68
2022/01/11 02:13:22;;;;;;;;;;;;;;;-0.22;88.45;102464.34;5042306;27;20967;-68
2022/01/11 02:15:47;;;;;;;;;;;;;;;-0.17;89.41;102467.72;5037862;27;20391;-68
2022/01/11 02:18:12;;;;;;;;;;;;;;;-0.18;88.94;102473.84;5039422;27;20455;-67
2022/01/11 02:20:38;;;;;;;;;;;;;;;-0.18;88.15;102476.44;5032180;27;19915;-67
2022/01/11 02:23:03;;;;;;;;;;;;;;;-0.16;88.56;102485.06;5038492;27;19903;-70
2022/01/11 02:25:29;;;;;;;;;;;;;;;-0.20;88.34;102483.38;5018318;27;19997;-67
2022/01/11 02:27:54;;;;;;;;;;;;;;;-0.29;88.71;102480.94;5036272;27;20021;-68
2022/01/11 02:30:19;;;;;;;;;;;;;;;-0.24;88.75;102489.53;5019820;27;20020;-67
2022/01/11 02:32:51;;;;;;;;;;;;;;;-0.22;88.63;102485.16;5053009;27;19970;-68
2022/01/11 02:35:16;;;;;;;;;;;;;;;-0.24;88.94;102494.72;5077610;27;20658;-66
2022/01/11 02:37:42;;;;;;;;;;;;;;;-0.16;88.07;102489.41;5040360;27;19955;-69
2022/01/11 02:40:07;;;;;;;;;;;;;;;-0.22;88.32;102493.81;5033387;27;20855;-67
2022/01/11 02:42:33;;;;;;;;;;;;;;;-0.28;88.59;102496.53;5032565;27;19904;-70
2022/01/11 02:44:58;;;;;;;;;;;;;;;-0.31;88.66;102485.28;5074364;27;19993;-68
2022/01/11 02:47:23;;;;;;;;;;;;;;;-0.32;88.87;102493.97;5058122;27;19995;-67
2022/01/11 02:49:48;;;;;;;;;;;;;;;-0.37;89.20;102496.66;5060266;27;19913;-67
2022/01/11 02:52:13;;;;;;;;;;;;;;;-0.51;89.71;102499.44;5073951;27;19918;-67
2022/01/11 02:54:39;;;;;;;;;;;;;;;-0.46;89.66;102496.81;5076731;27;19904;-70
2022/01/11 02:57:04;;;;;;;;;;;;;;;-0.46;89.82;102500.25;5021686;27;19903;-69
2022/01/11 02:59:29;;;;;;;;;;;;;;;-0.45;90.06;102491.59;5057810;27;19914;-69
2022/01/11 03:01:54;;;;;;;;;;;;;;;-0.41;90.12;102490.66;5039736;27;19922;-69
2022/01/11 03:04:20;;;;;;;;;;;;;;;-0.43;89.64;102500.22;5056035;27;21009;-67
2022/01/11 03:06:45;;;;;;;;;;;;;;;-0.46;89.99;102502.84;5026195;27;20950;-69
2022/01/11 03:09:10;;;;;;;;;;;;;;;-0.42;89.82;102503.69;5058773;27;19910;-70
2022/01/11 03:11:36;;;;;;;;;;;;;;;-0.45;89.94;102499.38;5056863;27;20432;-70
2022/01/11 03:14:02;;;;;;;;;;;;;;;-0.42;89.84;102501.09;5075680;27;20007;-70
2022/01/11 03:16:27;;;;;;;;;;;;;;;-0.31;89.97;102506.09;5059754;27;20404;-70
2022/01/11 03:18:52;;;;;;;;;;;;;;;-0.40;89.54;102496.72;5056537;27;20313;-70
2022/01/11 03:21:17;;;;;;;;;;;;;;;-0.46;89.77;102505.47;5077552;27;20184;-68
2022/01/11 03:23:43;;;;;;;;;;;;;;;-0.46;89.99;102507.22;5038962;27;19904;-67
2022/01/11 03:26:08;;;;;;;;;;;;;;;-0.46;89.88;102507.22;5037710;27;19964;-68
2022/01/11 03:28:33;;;;;;;;;;;;;;;-0.49;89.83;102517.63;5016229;27;20000;-67
2022/01/11 03:31:00;;;;;;;;;;;;;;;-0.48;89.82;102520.25;5040432;27;20123;-70
2022/01/11 03:33:25;;;;;;;;;;;;;;;-0.45;89.93;102509.78;5051866;27;19934;-69
2022/01/11 03:35:50;;;;;;;;;;;;;;;-0.44;89.67;102519.28;5053348;27;20250;-71
2022/01/11 03:38:16;;;;;;;;;;;;;;;-0.64;90.05;102516.13;5037885;27;20787;-67
2022/01/11 03:40:41;;;;;;;;;;;;;;;-0.56;89.75;102517.72;5053971;27;20039;-68
2022/01/11 03:43:06;;;;;;;;;;;;;;;-0.53;89.59;102517.69;5023761;27;20865;-68
2022/01/11 03:45:32;;;;;;;;;;;;;;;-0.60;89.22;102520.41;5035817;27;20016;-69
2022/01/11 03:47:57;;;;;;;;;;;;;;;-0.67;90.00;102513.56;5038983;27;20408;-70
2022/01/11 03:50:22;;;;;;;;;;;;;;;-0.67;89.81;102513.56;5032080;27;19949;-69
2022/01/11 03:52:55;;;;;;;;;;;;;;;-0.65;89.76;102512.63;5035241;27;19947;-69
2022/01/11 03:55:31;;;;;;;;;;;;;;;-0.65;89.72;102519.59;5035996;27;19912;-70
2022/01/11 03:57:57;;;;;;;;;;;;;;;-0.63;90.04;102521.28;5036074;27;19908;-67
2022/01/11 04:00:22;;;;;;;;;;;;;;;-0.56;89.89;102522.94;5034912;27;19992;-67
2022/01/11 04:02:47;;;;;;;;;;;;;;;-0.63;89.55;102517.84;5034576;27;20016;-67
2022/01/11 04:05:13;;;;;;;;;;;;;;;-0.74;89.78;102518.81;5032867;27;19975;-70
2022/01/11 04:07:39;;;;;;;;;;;;;;;-0.68;90.02;102524.84;5057903;27;20180;-67
2022/01/11 04:10:04;;;;;;;;;;;;;;;-0.70;89.75;102523.09;5031908;27;19908;-67
2022/01/11 04:12:29;;;;;;;;;;;;;;;-0.74;89.59;102517.97;5037168;27;19928;-67
2022/01/11 04:14:54;;;;;;;;;;;;;;;-0.70;89.68;102519.66;5032400;27;19904;-67
2022/01/11 04:17:20;;;;;;;;;;;;;;;-0.74;89.64;102515.38;5034613;27;19903;-70
2022/01/11 04:19:45;;;;;;;;;;;;;;;-0.68;89.58;102517.88;5016919;27;19911;-69
2022/01/11 04:22:10;;;;;;;;;;;;;;;-0.64;89.35;102513.53;5040059;27;20653;-70
2022/01/11 04:24:35;;;;;;;;;;;;;;;-0.62;89.64;102523.03;5039172;27;20831;-69
2022/01/11 04:27:00;;;;;;;;;;;;;;;-0.56;89.71;102527.28;5060737;27;19904;-67
2022/01/11 04:29:26;;;;;;;;;;;;;;;-0.60;89.66;102523.00;5022663;27;20086;-67
2022/01/11 04:31:51;;;;;;;;;;;;;;;-0.49;89.46;102528.91;5055369;27;19904;-68
2022/01/11 04:34:16;;;;;;;;;;;;;;;-0.46;88.77;102528.00;5039615;27;19907;-67
2022/01/11 04:36:42;;;;;;;;;;;;;;;-0.53;88.84;102528.09;5064710;27;19963;-67
2022/01/11 04:39:08;;;;;;;;;;;;;;;-0.55;88.68;102528.97;5037539;27;20343;-67
2022/01/11 04:41:33;;;;;;;;;;;;;;;-0.56;88.63;102535.94;5035156;27;19931;-67
2022/01/11 04:43:58;;;;;;;;;;;;;;;-0.63;88.88;102541.25;5055819;27;19930;-68
2022/01/11 04:46:24;;;;;;;;;;;;;;;-0.54;89.08;102526.38;5055914;27;19903;-68
2022/01/11 04:48:49;;;;;;;;;;;;;;;-0.64;89.18;102531.72;5041227;27;19959;-68
2022/01/11 04:51:14;;;;;;;;;;;;;;;-0.62;89.25;102532.53;5039837;27;19910;-68
2022/01/11 04:53:39;;;;;;;;;;;;;;;-0.60;89.11;102526.44;5066955;27;20317;-68
2022/01/11 04:56:05;;;;;;;;;;;;;;;-0.55;89.13;102534.19;5041014;27;20198;-68
2022/01/11 04:58:30;;;;;;;;;;;;;;;-0.57;89.21;102535.94;5080555;27;20090;-68
2022/01/11 05:00:55;;;;;;;;;;;;;;;-0.46;89.03;102533.22;5058633;27;19927;-69
2022/01/11 05:03:21;;;;;;;;;;;;;;;-0.49;88.75;102538.44;5080707;27;19899;-70
2022/01/11 05:05:46;;;;;;;;;;;;;;;-0.43;88.95;102543.56;5056917;27;20908;-69
2022/01/11 05:08:12;;;;;;;;;;;;;;;-0.47;88.20;102536.69;5019313;27;19968;-68
2022/01/11 05:10:42;;;;;;;;;;;;;;;-0.54;88.08;102541.09;5037588;27;20399;-69
2022/01/11 05:13:07;;;;;;;;;;;;;;;-0.56;88.36;102532.47;5035617;27;19967;-69
2022/01/11 05:15:32;;;;;;;;;;;;;;;-0.51;88.45;102541.06;5039831;27;20024;-68
2022/01/11 05:17:58;;;;;;;;;;;;;;;-0.57;88.29;102542.00;5054141;27;19909;-70
2022/01/11 05:20:23;;;;;;;;;;;;;;;-0.45;88.08;102548.78;5059878;27;20007;-69
2022/01/11 05:22:48;;;;;;;;;;;;;;;-0.61;88.20;102536.88;5032554;27;19956;-67
2022/01/11 05:25:15;;;;;;;;;;;;;;;-0.61;88.62;102544.66;5038733;27;20012;-68
2022/01/11 05:27:40;;;;;;;;;;;;;;;-0.63;88.56;102549.03;5016479;27;20005;-70
2022/01/11 05:30:06;;;;;;;;;;;;;;;-0.67;88.59;102542.16;5040865;27;20004;-68
2022/01/11 05:32:31;;;;;;;;;;;;;;;-0.71;88.80;102549.97;5034107;27;19952;-68
2022/01/11 05:34:56;;;;;;;;;;;;;;;-0.71;88.73;102549.97;5054267;27;19903;-69
2022/01/11 05:37:22;;;;;;;;;;;;;;;-0.73;88.83;102554.34;5037896;27;19922;-68
2022/01/11 05:39:49;;;;;;;;;;;;;;;-0.72;89.21;102563.00;5056340;27;20062;-69
2022/01/11 05:42:14;;;;;;;;;;;;;;;-0.71;88.85;102562.97;5058180;27;20234;-69
2022/01/11 05:44:39;;;;;;;;;;;;;;;-0.67;88.86;102560.38;5033755;27;20091;-68
2022/01/11 05:47:04;;;;;;;;;;;;;;;-0.66;88.80;102573.34;5051485;27;20015;-68
2022/01/11 05:49:30;;;;;;;;;;;;;;;-0.68;88.47;102571.63;5022356;27;19918;-68
2022/01/11 05:51:55;;;;;;;;;;;;;;;-0.67;88.35;102575.97;5040844;27;19911;-70
2022/01/11 05:54:20;;;;;;;;;;;;;;;-0.60;87.82;102585.41;5039650;27;20311;-68
2022/01/11 05:56:46;;;;;;;;;;;;;;;-0.65;87.88;102584.59;5020352;27;19903;-69
2022/01/11 05:59:11;;;;;;;;;;;;;;;-0.57;87.79;102580.16;5023783;27;19903;-67
2022/01/11 06:01:36;;;;;;;;;;;;;;;-0.56;87.81;102580.13;5055999;27;20382;-69
2022/01/11 06:04:02;;;;;;;;;;;;;;;-0.61;87.28;102586.28;5021901;27;20467;-69
2022/01/11 06:06:27;;;;;;;;;;;;;;;-0.59;87.58;102579.28;5035847;27;19911;-68
2022/01/11 06:08:52;;;;;;;;;;;;;;;-0.66;87.47;102580.25;5035607;27;19916;-68
2022/01/11 06:11:17;;;;;;;;;;;;;;;-0.64;87.92;102583.72;5057414;27;20058;-69
2022/01/11 06:13:43;;;;;;;;;;;;;;;-0.65;87.75;102579.38;5068500;27;19915;-68
2022/01/11 06:16:08;;;;;;;;;;;;;;;-0.58;87.92;102581.91;5037931;27;19959;-68
2022/01/11 06:18:34;;;;;;;;;;;;;;;-0.59;87.79;102589.69;5058429;27;19907;-68
2022/01/11 06:20:59;;;;;;;;;;;;;;;-0.62;87.73;102595.81;5057476;27;20654;-67
2022/01/11 06:23:24;;;;;;;;;;;;;;;-0.68;87.60;102590.69;5058939;27;19944;-68
2022/01/11 06:25:49;;;;;;;;;;;;;;;-0.58;87.63;102594.03;5036921;27;20012;-67
2022/01/11 06:28:15;;;;;;;;;;;;;;;-0.54;87.71;102587.91;5059040;27;20024;-69
2022/01/11 06:30:40;;;;;;;;;;;;;;;-0.61;87.68;102584.53;5040489;27;20511;-66
2022/01/11 06:33:05;;;;;;;;;;;;;;;-0.66;87.60;102588.06;5052968;27;20004;-68
2022/01/11 06:35:30;;;;;;;;;;;;;;;-0.64;87.67;102587.16;5039974;27;20392;-69
2022/01/11 06:37:56;;;;;;;;;;;;;;;-0.67;87.82;102597.59;5041194;27;19908;-68
2022/01/11 06:40:21;;;;;;;;;;;;;;;-0.50;87.95;102601.75;5059938;27;20066;-68
2022/01/11 06:42:46;;;;;;;;;;;;;;;-0.64;87.25;102605.38;5057197;27;19968;-68
2022/01/11 06:45:12;;;;;;;;;;;;;;;-0.70;87.17;102611.50;5036607;27;19960;-68
2022/01/11 06:47:37;;;;;;;;;;;;;;;-0.72;87.37;102608.06;5016737;27;19968;-67
2022/01/11 06:50:02;;;;;;;;;;;;;;;-0.83;87.49;102612.53;5017820;27;19908;-68
2022/01/11 06:52:28;;;;;;;;;;;;;;;-0.95;87.75;102610.91;4995459;28;19908;-67
2022/01/11 06:54:53;;;;;;;;;;;;;;;-0.96;88.31;102613.53;5018144;28;20015;-68
2022/01/11 06:57:18;;;;;;;;;;;;;;;-0.88;87.95;102614.31;5017358;28;20012;-66
2022/01/11 06:59:43;;;;;;;;;;;;;;;-0.93;87.89;102610.88;5019948;28;19904;-68
2022/01/11 07:02:08;;;;;;;;;;;;;;;-1.05;88.05;102607.53;5017816;28;19930;-67
2022/01/11 07:04:34;;;;;;;;;;;;;;;-0.96;88.24;102623.91;5016406;28;19900;-68
2022/01/11 07:06:59;;;;;;;;;;;;;;;-0.98;87.93;102626.53;5026253;27;20426;-67
2022/01/11 07:09:24;;;;;;;;;;;;;;;-1.00;88.41;102625.72;5023208;27;19915;-67
2022/01/11 07:11:50;;;;;;;;;;;;;;;-0.93;88.06;102627.38;5038150;27;19907;-70
2022/01/11 07:14:15;;;;;;;;;;;;;;;-0.97;88.34;102624.78;5036813;27;19908;-70
2022/01/11 07:16:41;;;;;;;;;;;;;;;-0.98;88.41;102621.34;5011853;27;19968;-70
2022/01/11 07:19:07;;;;;;;;;;;;;;;-1.01;88.44;102623.97;5024281;27;20020;-67
2022/01/11 07:21:34;;;;;;;;;;;;;;;-1.06;88.31;102637.03;5023081;27;19950;-67
2022/01/11 07:24:00;;;;;;;;;;;;;;;-1.01;88.46;102631.78;5038934;27;19914;-69
2022/01/11 07:26:25;;;;;;;;;;;;;;;-1.05;88.38;102637.88;4999538;27;19903;-67
2022/01/11 07:28:50;;;;;;;;;;;;;;;-0.99;88.39;102634.34;5036314;27;19964;-66
2022/01/11 07:31:15;;;;;;;;;;;;;;;-0.98;88.04;102642.13;5001849;27;19911;-68
2022/01/11 07:33:41;;;;;;;;;;;;;;;-0.92;88.01;102644.66;5034715;27;20316;-66
2022/01/11 07:36:06;;;;;;;;;;;;;;;-0.94;87.55;102635.19;5020337;27;20367;-67
2022/01/11 07:38:32;;;;;;;;;;;;;;;-0.95;87.97;102643.84;5034811;27;19904;-66
2022/01/11 07:40:57;;;;;;;;;;;;;;;-1.02;88.05;102643.03;5040450;27;19923;-67
2022/01/11 07:43:22;;;;;;;;;;;;;;;-0.97;87.96;102645.56;5035565;27;19956;-68
2022/01/11 07:45:47;;;;;;;;;;;;;;;-0.87;87.57;102647.22;5029160;27;19975;-67
2022/01/11 07:48:12;;;;;;;;;;;;;;;-0.89;87.74;102649.84;5039328;27;20020;-65
2022/01/11 07:50:38;;;;;;;;;;;;;;;-0.92;87.53;102654.19;5035490;27;20690;-69
2022/01/11 07:53:05;;;;;;;;;;;;;;;-0.85;87.38;102661.06;5035860;27;20855;-65
2022/01/11 07:55:30;;;;;;;;;;;;;;;-0.80;87.22;102663.63;5033445;27;19907;-67
2022/01/11 07:57:56;;;;;;;;;;;;;;;-0.71;86.89;102663.50;5037799;27;20503;-66
2022/01/11 08:00:21;;;;;;;;;;;;;;;-0.93;87.10;102657.66;5016210;27;21384;-66
2022/01/11 08:02:46;;;;;;;;;;;;;;;-0.97;87.45;102661.16;5036040;27;19997;-67
2022/01/11 08:05:11;;;;;;;;;;;;;;;-0.87;87.32;102660.22;5015959;27;20098;-68
2022/01/11 08:07:37;;;;;;;;;;;;;;;-1.10;87.58;102665.63;5035547;27;20156;-66
2022/01/11 08:10:02;;;;;;;;;;;;;;;-1.06;88.06;102667.31;5035650;27;19937;-67
2022/01/11 08:12:27;;;;;;;;;;;;;;;-0.92;87.73;102673.25;5034826;27;19907;-67
2022/01/11 08:14:53;;;;;;;;;;;;;;;-0.82;87.50;102675.75;5022257;27;21042;-65
2022/01/11 08:17:18;;;;;;;;;;;;;;;-0.94;87.11;102671.56;5034764;27;19949;-66
2022/01/11 08:19:44;;;;;;;;;;;;;;;-0.93;87.17;102668.94;5037736;27;20554;-66
2022/01/11 08:22:09;;;;;;;;;;;;;;;-0.97;87.17;102682.84;5020263;27;20255;-65
2022/01/11 08:24:38;;;;;;;;;;;;;;;-0.86;87.33;102685.34;5039717;27;19911;-67
2022/01/11 08:27:04;;;;;;;;;;;;;;;-0.92;87.14;102677.59;5037511;27;20358;-67
2022/01/11 08:29:29;;;;;;;;;;;;;;;-0.79;87.02;102679.19;5037371;27;19915;-66
2022/01/11 08:31:55;;;;;;;;;;;;;;;-0.78;86.64;102677.44;5037209;27;19908;-67
2022/01/11 08:34:20;;;;;;;;;;;;;;;-0.79;86.65;102676.59;5018679;28;20228;-67
2022/01/11 08:36:47;;;;;;;;;;;;;;;-0.63;86.16;102681.66;5035937;28;19912;-68
2022/01/11 08:39:13;;;;;;;;;;;;;;;-0.65;86.20;102678.19;5014398;28;19922;-66
2022/01/11 08:41:39;;;;;;;;;;;;;;;-0.55;85.95;102674.59;5036946;28;20155;-67
2022/01/11 08:44:04;;;;;;;;;;;;;;;-0.51;85.62;102676.28;5029252;27;19911;-68
2022/01/11 08:46:29;;;;;;;;;;;;;;;-0.49;85.41;102673.66;5031273;27;19918;-68
2022/01/11 08:48:55;;;;;;;;;;;;;;;-0.25;85.40;102682.94;5024640;28;20390;-68
2022/01/11 08:51:20;;;;;;;;;;;;;;;-0.17;84.41;102675.88;5057832;27;20431;-68
2022/01/11 08:53:45;;;;;;;;;;;;;;;-0.09;84.37;102679.25;5023244;27;20016;-66
2022/01/11 08:56:15;;;;;;;;;;;;;;;0.00;84.23;102680.88;5057974;27;20038;-68
2022/01/11 08:58:40;;;;;;;;;;;;;;;0.05;83.24;102680.81;5039220;27;19934;-68
2022/01/11 09:01:05;;;;;;;;;;;;;;;0.15;83.19;102688.47;5023121;27;20474;-67
2022/01/11 09:03:30;;;;;;;;;;;;;;;0.34;82.23;102696.88;5040558;27;20336;-68
2022/01/11 09:05:56;;;;;;;;;;;;;;;0.47;81.40;102684.53;5051525;27;20909;-68
2022/01/11 09:08:21;;;;;;;;;;;;;;;0.59;81.29;102687.84;5016456;28;20427;-68
2022/01/11 09:10:46;;;;;;;;;;;;;;;0.85;80.86;102690.03;5034108;27;20844;-66
2022/01/11 09:13:11;;;;;;;;;;;;;;;1.11;80.12;102686.94;5020708;27;20020;-66
2022/01/11 09:15:37;;;;;;;;;;;;;;;1.31;78.70;102689.22;5023008;27;20428;-67
2022/01/11 09:18:02;;;;;;;;;;;;;;;1.41;78.02;102699.44;5035959;27;19903;-68
2022/01/11 09:20:27;;;;;;;;;;;;;;;1.74;77.16;102691.88;5021812;27;19907;-67
2022/01/11 09:22:53;;;;;;;;;;;;;;;1.92;75.96;102694.09;5038255;27;20114;-66
2022/01/11 09:25:18;;;;;;;;;;;;;;;2.21;74.25;102705.66;5037388;27;19911;-69
2022/01/11 09:27:43;;;;;;;;;;;;;;;2.23;73.80;102702.09;5020406;28;19904;-67
2022/01/11 09:30:09;;;;;;;;;;;;;;;2.52;73.83;102702.34;5035890;27;19961;-66
2022/01/11 09:32:35;;;;;;;;;;;;;;;2.37;72.66;102696.56;5016293;27;21266;-67
2022/01/11 09:35:01;;;;;;;;;;;;;;;2.44;73.29;102704.25;5049816;27;19918;-68
2022/01/11 09:37:26;;;;;;;;;;;;;;;2.42;73.74;102703.44;5050605;27;20507;-68
2022/01/11 09:39:51;;;;;;;;;;;;;;;2.70;72.66;102707.13;5022707;27;19908;-69
2022/01/11 09:42:16;;;;;;;;;;;;;;;2.84;72.39;102708.56;5061347;27;20132;-68
2022/01/11 09:44:42;;;;;;;;;;;;;;;3.43;71.22;102708.75;5039944;27;19964;-65
2022/01/11 09:47:08;;;;;;;;;;;;;;;3.14;70.65;102716.50;5064550;27;19977;-67
2022/01/11 09:49:33;;;;;;;;;;;;;;;3.56;69.55;102698.78;5027187;27;19911;-67
2022/01/11 09:52:01;;;;;;;;;;;;;;;3.93;68.55;102708.22;5062754;27;19952;-68
2022/01/11 09:54:27;;;;;;;;;;;;;;;4.60;66.68;102708.81;5065422;27;19914;-67
2022/01/11 09:56:52;;;;;;;;;;;;;;;4.96;65.22;102698.88;5068758;27;19904;-67
2022/01/11 09:59:17;;;;;;;;;;;;;;;4.24;65.51;102706.44;5029968;27;19915;-68
2022/01/11 10:01:42;;;;;;;;;;;;;;;4.54;65.96;102703.75;5049202;27;19925;-68
2022/01/11 10:04:10;;;;;;;;;;;;;;;4.40;65.37;102702.44;5017131;27;19912;-68
2022/01/11 10:06:37;;;;;;;;;;;;;;;4.63;66.40;102706.09;5048676;27;20011;-68
2022/01/11 10:09:09;;;;;;;;;;;;;;;4.36;65.88;102703.44;5028223;27;19918;-67
2022/01/11 10:11:34;;;;;;;;;;;;;;;5.32;64.14;102697.66;5035602;27;19907;-68
2022/01/11 10:14:01;;;;;;;;;;;;;;;6.01;62.28;102694.28;5033565;27;20225;-68
2022/01/11 10:16:27;;;;;;;;;;;;;;;6.11;61.19;102693.00;5010318;27;19912;-69
2022/01/11 10:18:52;;;;;;;;;;;;;;;6.29;60.25;102701.06;5028335;27;19910;-66
2022/01/11 10:21:36;;;;;;;;;;;;;;;6.32;60.36;102696.56;5028302;27;20016;-67
2022/01/11 10:24:19;;;;;;;;;;;;;;;6.58;59.03;102699.91;5046623;27;19899;-67
2022/01/11 10:26:45;;;;;;;;;;;;;;;6.98;58.70;102697.41;5054453;27;20003;-67
2022/01/11 10:29:24;;;;;;;;;;;;;;;7.31;56.96;102702.16;5047212;27;20162;-67
2022/01/11 10:31:49;;;;;;;;;;;;;;;7.78;55.90;102701.78;5066710;27;19903;-66
2022/01/11 10:34:14;;;;;;;;;;;;;;;7.90;54.76;102689.84;5049507;27;19914;-67
2022/01/11 10:36:49;;;;;;;;;;;;;;;7.89;55.05;102688.13;5019138;27;19956;-69
2022/01/11 10:39:23;;;;;;;;;;;;;;;7.04;56.89;102697.16;5050708;27;19923;-68
2022/01/11 10:41:49;;;;;;;;;;;;;;;6.59;58.52;102691.13;5032095;27;20177;-66
2022/01/11 10:44:16;;;;;;;;;;;;;;;5.96;60.06;102698.81;5027661;27;20710;-66
2022/01/11 10:46:44;;;;;;;;;;;;;;;5.92;60.99;102692.84;5044293;27;20337;-69
2022/01/11 10:49:09;;;;;;;;;;;;;;;5.44;61.58;102697.22;5027833;27;19966;-69
2022/01/11 10:51:34;;;;;;;;;;;;;;;5.13;63.14;102690.44;5051053;27;20008;-68
2022/01/11 10:54:00;;;;;;;;;;;;;;;4.91;63.88;102703.41;5028772;27;20716;-66
2022/01/11 10:56:37;;;;;;;;;;;;;;;5.06;64.00;102696.81;5031546;27;19914;-67
2022/01/11 10:59:03;;;;;;;;;;;;;;;5.35;63.68;102708.03;5045447;27;19945;-67
2022/01/11 11:01:32;;;;;;;;;;;;;;;5.42;63.90;102706.91;5030328;27;20413;-67
2022/01/11 11:03:57;;;;;;;;;;;;;;;5.53;62.94;102700.41;5032688;27;19911;-66
2022/01/11 11:06:23;;;;;;;;;;;;;;;5.65;62.81;102706.09;5044843;27;19914;-68
2022/01/11 11:08:48;;;;;;;;;;;;;;;5.90;62.79;102699.91;5050497;27;19903;-68
2022/01/11 11:11:17;;;;;;;;;;;;;;;6.43;61.52;102696.16;5045214;27;20335;-66
2022/01/11 11:13:43;;;;;;;;;;;;;;;6.90;60.35;102703.00;5047527;27;20019;-69
2022/01/11 11:16:09;;;;;;;;;;;;;;;7.39;58.70;102705.31;5044571;27;19914;-70
2022/01/11 11:19:01;;;;;;;;;;;;;;;7.35;58.10;102703.72;5047359;27;20725;-67
2022/01/11 11:21:26;;;;;;;;;;;;;;;7.28;58.20;102700.50;5043620;27;19967;-67
2022/01/11 11:23:58;;;;;;;;;;;;;;;7.61;58.11;102699.06;5065336;27;20928;-67
2022/01/11 11:26:24;;;;;;;;;;;;;;;7.22;57.95;102699.00;5043245;27;19911;-67
2022/01/11 11:28:50;;;;;;;;;;;;;;;7.60;57.70;102708.78;5027714;27;19979;-68
2022/01/11 11:31:15;;;;;;;;;;;;;;;7.99;56.82;102709.66;5051117;27;19911;-67
2022/01/11 11:33:41;;;;;;;;;;;;;;;8.25;56.70;102700.53;5066404;27;20011;-67
2022/01/11 11:36:06;;;;;;;;;;;;;;;8.64;54.77;102703.94;5044514;27;20689;-66
2022/01/11 11:38:32;;;;;;;;;;;;;;;9.12;54.54;102712.97;5062985;27;19911;-67
2022/01/11 11:40:59;;;;;;;;;;;;;;;9.39;53.51;102720.41;5065876;27;20346;-69
2022/01/11 11:43:25;;;;;;;;;;;;;;;8.96;53.16;102712.91;5066477;27;19911;-66
2022/01/11 11:45:50;;;;;;;;;;;;;;;9.47;52.47;102702.34;5062185;27;20697;-67
2022/01/11 11:48:16;;;;;;;;;;;;;;;9.82;51.85;102707.53;5047187;27;19918;-67
2022/01/11 11:50:49;;;;;;;;;;;;;;;10.42;50.29;102712.19;5045167;27;19944;-67
2022/01/11 11:53:20;;;;;;;;;;;;;;;10.78;49.43;102707.50;5066625;27;19911;-67
2022/01/11 11:55:45;;;;;;;;;;;;;;;11.02;48.30;102699.06;5063396;27;19907;-67
2022/01/11 11:58:10;;;;;;;;;;;;;;;11.61;47.79;102713.13;5032380;27;19900;-67
2022/01/11 12:00:36;;;;;;;;;;;;;;;12.20;45.92;102704.19;5040762;27;19949;-67
2022/01/11 12:03:19;;;;;;;;;;;;;;;12.53;44.41;102701.09;5047389;27;19903;-67
2022/01/11 12:05:46;;;;;;;;;;;;;;;13.35;43.94;102702.75;5047832;27;19951;-67
2022/01/11 12:08:30;;;;;;;;;;;;;;;13.77;42.23;102711.31;5050380;27;20677;-67
2022/01/11 12:11:00;;;;;;;;;;;;;;;13.72;42.26;102711.66;5067959;27;19971;-66
2022/01/11 12:13:34;;;;;;;;;;;;;;;13.78;41.83;102715.69;5046450;27;19910;-66
2022/01/11 12:16:00;;;;;;;;;;;;;;;13.42;41.66;102714.66;5068447;27;20733;-67
2022/01/11 12:18:25;;;;;;;;;;;;;;;13.33;42.39;102713.47;5028475;27;19916;-65
2022/01/11 12:20:51;;;;;;;;;;;;;;;12.18;43.82;102703.41;5044652;27;19927;-67
2022/01/11 12:23:20;;;;;;;;;;;;;;;11.67;45.49;102695.97;5046861;27;19922;-67
2022/01/11 12:25:52;;;;;;;;;;;;;;;11.91;45.30;102693.56;5044525;27;19968;-68
2022/01/11 12:28:18;;;;;;;;;;;;;;;11.88;45.61;102692.94;5044896;27;19908;-67
2022/01/11 12:30:43;;;;;;;;;;;;;;;11.79;46.25;102681.97;5045915;27;20784;-68
2022/01/11 12:33:19;;;;;;;;;;;;;;;11.62;46.47;102688.31;5040919;27;19910;-67
2022/01/11 12:35:50;;;;;;;;;;;;;;;10.83;48.09;102678.97;5042264;27;19981;-67
2022/01/11 12:38:15;;;;;;;;;;;;;;;11.10;47.50;102680.91;5068910;27;19930;-66
2022/01/11 12:40:42;;;;;;;;;;;;;;;10.57;48.23;102672.53;5056403;27;19911;-67